sensor_id;sensor_type;location;lat;lon;timestamp;P1;durP1;ratioP1;P2;durP2;ratioP2
842;SDS011;407;48.884;9.126;2022-12-15T00:02:30;38.22;;;17.73;;
842;SDS011;407;48.884;9.126;2022-12-15T00:05:14;36.13;;;16.60;;
842;SDS011;407;48.884;9.126;2022-12-15T00:08:05;30.90;;;15.57;;
842;SDS011;407;48.884;9.126;2022-12-15T00:10:53;34.22;;;17.35;;
842;SDS011;407;48.884;9.126;2022-12-15T00:13:38;36.78;;;16.10;;
842;SDS011;407;48.884;9.126;2022-12-15T00:16:23;37.15;;;16.63;;
842;SDS011;407;48.884;9.126;2022-12-15T00:19:08;33.05;;;15.75;;
842;SDS011;407;48.884;9.126;2022-12-15T00:21:52;33.43;;;15.70;;
842;SDS011;407;48.884;9.126;2022-12-15T00:24:36;33.20;;;14.95;;
842;SDS011;407;48.884;9.126;2022-12-15T00:27:20;37.38;;;17.75;;
842;SDS011;407;48.884;9.126;2022-12-15T00:30:04;36.15;;;16.25;;
842;SDS011;407;48.884;9.126;2022-12-15T00:32:49;33.75;;;16.15;;
842;SDS011;407;48.884;9.126;2022-12-15T00:35:33;37.43;;;18.30;;
842;SDS011;407;48.884;9.126;2022-12-15T00:38:18;37.22;;;17.58;;
842;SDS011;407;48.884;9.126;2022-12-15T00:41:02;37.85;;;18.00;;
842;SDS011;407;48.884;9.126;2022-12-15T00:43:30;35.55;;;16.73;;
842;SDS011;407;48.884;9.126;2022-12-15T00:45:57;44.00;;;17.90;;
842;SDS011;407;48.884;9.126;2022-12-15T00:48:41;42.20;;;17.70;;
842;SDS011;407;48.884;9.126;2022-12-15T00:51:08;34.80;;;15.52;;
842;SDS011;407;48.884;9.126;2022-12-15T00:53:33;36.58;;;17.00;;
842;SDS011;407;48.884;9.126;2022-12-15T00:56:18;34.90;;;16.42;;
842;SDS011;407;48.884;9.126;2022-12-15T00:59:02;38.67;;;15.27;;
842;SDS011;407;48.884;9.126;2022-12-15T01:01:46;34.88;;;15.40;;
842;SDS011;407;48.884;9.126;2022-12-15T01:04:30;33.15;;;14.80;;
842;SDS011;407;48.884;9.126;2022-12-15T01:07:14;38.40;;;16.63;;
842;SDS011;407;48.884;9.126;2022-12-15T01:09:59;35.17;;;15.32;;
842;SDS011;407;48.884;9.126;2022-12-15T01:12:44;35.00;;;15.32;;
842;SDS011;407;48.884;9.126;2022-12-15T01:15:29;37.25;;;16.35;;
842;SDS011;407;48.884;9.126;2022-12-15T01:18:13;38.90;;;17.67;;
842;SDS011;407;48.884;9.126;2022-12-15T01:20:58;35.03;;;15.55;;
842;SDS011;407;48.884;9.126;2022-12-15T01:23:25;30.20;;;14.55;;
842;SDS011;407;48.884;9.126;2022-12-15T01:25:51;40.03;;;16.83;;
842;SDS011;407;48.884;9.126;2022-12-15T01:28:18;35.30;;;15.37;;
842;SDS011;407;48.884;9.126;2022-12-15T01:30:44;31.10;;;14.70;;
842;SDS011;407;48.884;9.126;2022-12-15T01:33:11;37.25;;;15.48;;
842;SDS011;407;48.884;9.126;2022-12-15T01:35:37;35.97;;;16.65;;
842;SDS011;407;48.884;9.126;2022-12-15T01:38:03;35.33;;;16.40;;
842;SDS011;407;48.884;9.126;2022-12-15T01:40:28;38.30;;;17.42;;
842;SDS011;407;48.884;9.126;2022-12-15T01:43:13;33.55;;;15.07;;
842;SDS011;407;48.884;9.126;2022-12-15T01:45:46;42.33;;;17.08;;
842;SDS011;407;48.884;9.126;2022-12-15T01:48:13;35.40;;;16.27;;
842;SDS011;407;48.884;9.126;2022-12-15T01:51:08;39.58;;;16.88;;
842;SDS011;407;48.884;9.126;2022-12-15T01:53:42;36.40;;;15.40;;
842;SDS011;407;48.884;9.126;2022-12-15T01:56:31;40.77;;;17.50;;
842;SDS011;407;48.884;9.126;2022-12-15T01:58:59;29.60;;;15.30;;
842;SDS011;407;48.884;9.126;2022-12-15T02:01:27;38.20;;;15.98;;
842;SDS011;407;48.884;9.126;2022-12-15T02:03:52;35.33;;;16.50;;
842;SDS011;407;48.884;9.126;2022-12-15T02:06:18;36.05;;;15.15;;
842;SDS011;407;48.884;9.126;2022-12-15T02:08:49;34.50;;;16.08;;
842;SDS011;407;48.884;9.126;2022-12-15T02:14:11;34.05;;;16.55;;
842;SDS011;407;48.884;9.126;2022-12-15T02:19:52;39.93;;;17.17;;
842;SDS011;407;48.884;9.126;2022-12-15T02:37:08;36.28;;;16.20;;
842;SDS011;407;48.884;9.126;2022-12-15T02:39:38;36.47;;;17.20;;
842;SDS011;407;48.884;9.126;2022-12-15T02:42:04;33.77;;;16.03;;
842;SDS011;407;48.884;9.126;2022-12-15T02:44:37;33.20;;;15.83;;
842;SDS011;407;48.884;9.126;2022-12-15T02:47:16;34.20;;;15.70;;
842;SDS011;407;48.884;9.126;2022-12-15T03:00:45;34.78;;;15.25;;
842;SDS011;407;48.884;9.126;2022-12-15T03:03:17;39.58;;;17.08;;
842;SDS011;407;48.884;9.126;2022-12-15T03:05:48;37.40;;;15.63;;
842;SDS011;407;48.884;9.126;2022-12-15T03:08:19;38.22;;;16.33;;
842;SDS011;407;48.884;9.126;2022-12-15T03:10:46;41.75;;;17.70;;
842;SDS011;407;48.884;9.126;2022-12-15T03:13:17;33.67;;;16.50;;
842;SDS011;407;48.884;9.126;2022-12-15T03:15:42;38.53;;;16.25;;
842;SDS011;407;48.884;9.126;2022-12-15T03:18:08;36.53;;;15.47;;
842;SDS011;407;48.884;9.126;2022-12-15T03:20:33;36.60;;;16.02;;
842;SDS011;407;48.884;9.126;2022-12-15T03:23:00;34.50;;;16.30;;
842;SDS011;407;48.884;9.126;2022-12-15T03:25:25;38.75;;;15.57;;
842;SDS011;407;48.884;9.126;2022-12-15T03:27:52;35.50;;;15.95;;
842;SDS011;407;48.884;9.126;2022-12-15T03:30:17;42.72;;;18.40;;
842;SDS011;407;48.884;9.126;2022-12-15T03:32:43;42.30;;;16.67;;
842;SDS011;407;48.884;9.126;2022-12-15T03:35:09;44.60;;;18.70;;
842;SDS011;407;48.884;9.126;2022-12-15T03:37:36;45.42;;;17.38;;
842;SDS011;407;48.884;9.126;2022-12-15T03:40:03;48.25;;;16.88;;
842;SDS011;407;48.884;9.126;2022-12-15T03:42:29;43.42;;;17.80;;
842;SDS011;407;48.884;9.126;2022-12-15T03:45:13;40.00;;;17.65;;
842;SDS011;407;48.884;9.126;2022-12-15T03:47:43;35.70;;;16.83;;
842;SDS011;407;48.884;9.126;2022-12-15T03:50:10;35.67;;;15.52;;
842;SDS011;407;48.884;9.126;2022-12-15T03:52:36;41.45;;;17.88;;
842;SDS011;407;48.884;9.126;2022-12-15T03:55:02;36.38;;;16.63;;
842;SDS011;407;48.884;9.126;2022-12-15T03:57:29;38.40;;;17.02;;
842;SDS011;407;48.884;9.126;2022-12-15T03:59:55;36.47;;;15.85;;
842;SDS011;407;48.884;9.126;2022-12-15T04:02:21;44.20;;;18.65;;
842;SDS011;407;48.884;9.126;2022-12-15T04:04:46;40.70;;;17.70;;
842;SDS011;407;48.884;9.126;2022-12-15T04:07:12;41.55;;;18.08;;
842;SDS011;407;48.884;9.126;2022-12-15T04:09:38;45.53;;;18.23;;
842;SDS011;407;48.884;9.126;2022-12-15T04:12:04;38.22;;;17.33;;
842;SDS011;407;48.884;9.126;2022-12-15T04:14:30;36.53;;;16.73;;
842;SDS011;407;48.884;9.126;2022-12-15T04:16:56;43.47;;;16.43;;
842;SDS011;407;48.884;9.126;2022-12-15T04:19:22;37.93;;;15.67;;
842;SDS011;407;48.884;9.126;2022-12-15T04:22:06;42.22;;;17.17;;
842;SDS011;407;48.884;9.126;2022-12-15T04:24:31;40.40;;;17.98;;
842;SDS011;407;48.884;9.126;2022-12-15T04:27:16;36.10;;;16.42;;
842;SDS011;407;48.884;9.126;2022-12-15T04:30:00;37.45;;;17.05;;
842;SDS011;407;48.884;9.126;2022-12-15T04:32:44;35.20;;;17.13;;
842;SDS011;407;48.884;9.126;2022-12-15T04:35:29;41.47;;;16.90;;
842;SDS011;407;48.884;9.126;2022-12-15T04:38:15;43.50;;;18.20;;
842;SDS011;407;48.884;9.126;2022-12-15T04:40:59;37.60;;;15.32;;
842;SDS011;407;48.884;9.126;2022-12-15T04:43:43;42.28;;;17.83;;
842;SDS011;407;48.884;9.126;2022-12-15T04:46:28;46.13;;;18.88;;
842;SDS011;407;48.884;9.126;2022-12-15T04:49:12;41.03;;;17.13;;
842;SDS011;407;48.884;9.126;2022-12-15T04:51:56;45.33;;;16.90;;
842;SDS011;407;48.884;9.126;2022-12-15T04:54:40;35.20;;;16.57;;
842;SDS011;407;48.884;9.126;2022-12-15T04:57:24;36.45;;;16.48;;
842;SDS011;407;48.884;9.126;2022-12-15T05:00:09;37.25;;;15.57;;
842;SDS011;407;48.884;9.126;2022-12-15T05:02:53;39.58;;;17.90;;
842;SDS011;407;48.884;9.126;2022-12-15T05:05:37;45.25;;;21.35;;
842;SDS011;407;48.884;9.126;2022-12-15T05:08:22;48.45;;;22.38;;
842;SDS011;407;48.884;9.126;2022-12-15T05:11:06;52.30;;;20.58;;
842;SDS011;407;48.884;9.126;2022-12-15T05:13:50;39.53;;;19.43;;
842;SDS011;407;48.884;9.126;2022-12-15T05:16:34;49.17;;;19.02;;
842;SDS011;407;48.884;9.126;2022-12-15T05:19:18;52.00;;;19.75;;
842;SDS011;407;48.884;9.126;2022-12-15T05:22:02;45.78;;;19.38;;
842;SDS011;407;48.884;9.126;2022-12-15T05:24:46;39.75;;;17.58;;
842;SDS011;407;48.884;9.126;2022-12-15T05:27:30;37.90;;;18.55;;
842;SDS011;407;48.884;9.126;2022-12-15T05:30:14;45.28;;;18.10;;
842;SDS011;407;48.884;9.126;2022-12-15T05:33:02;37.08;;;16.10;;
842;SDS011;407;48.884;9.126;2022-12-15T05:35:28;38.88;;;17.50;;
842;SDS011;407;48.884;9.126;2022-12-15T05:37:54;43.60;;;18.95;;
842;SDS011;407;48.884;9.126;2022-12-15T05:40:20;43.45;;;18.27;;
842;SDS011;407;48.884;9.126;2022-12-15T05:42:45;42.97;;;16.47;;
842;SDS011;407;48.884;9.126;2022-12-15T05:45:11;39.50;;;17.17;;
842;SDS011;407;48.884;9.126;2022-12-15T05:47:36;40.77;;;18.57;;
842;SDS011;407;48.884;9.126;2022-12-15T05:50:02;44.90;;;18.20;;
842;SDS011;407;48.884;9.126;2022-12-15T05:52:28;42.65;;;17.58;;
842;SDS011;407;48.884;9.126;2022-12-15T05:54:53;39.63;;;16.13;;
842;SDS011;407;48.884;9.126;2022-12-15T05:57:19;38.83;;;16.87;;
842;SDS011;407;48.884;9.126;2022-12-15T05:59:44;51.83;;;17.42;;
842;SDS011;407;48.884;9.126;2022-12-15T06:02:10;42.67;;;16.47;;
842;SDS011;407;48.884;9.126;2022-12-15T06:04:36;37.17;;;16.17;;
842;SDS011;407;48.884;9.126;2022-12-15T06:07:01;43.53;;;17.55;;
842;SDS011;407;48.884;9.126;2022-12-15T06:09:27;45.37;;;17.40;;
842;SDS011;407;48.884;9.126;2022-12-15T06:11:53;39.35;;;16.95;;
842;SDS011;407;48.884;9.126;2022-12-15T06:14:18;44.25;;;17.33;;
842;SDS011;407;48.884;9.126;2022-12-15T06:16:44;39.93;;;17.50;;
842;SDS011;407;48.884;9.126;2022-12-15T06:19:10;41.10;;;16.38;;
842;SDS011;407;48.884;9.126;2022-12-15T06:21:36;45.03;;;17.37;;
842;SDS011;407;48.884;9.126;2022-12-15T06:24:02;40.30;;;15.52;;
842;SDS011;407;48.884;9.126;2022-12-15T06:26:29;47.63;;;18.27;;
842;SDS011;407;48.884;9.126;2022-12-15T06:28:58;39.97;;;17.95;;
842;SDS011;407;48.884;9.126;2022-12-15T06:31:28;42.13;;;17.98;;
842;SDS011;407;48.884;9.126;2022-12-15T06:33:55;38.85;;;17.23;;
842;SDS011;407;48.884;9.126;2022-12-15T06:36:22;38.58;;;15.95;;
842;SDS011;407;48.884;9.126;2022-12-15T06:38:48;41.75;;;16.02;;
842;SDS011;407;48.884;9.126;2022-12-15T06:41:15;40.97;;;15.13;;
842;SDS011;407;48.884;9.126;2022-12-15T06:43:47;42.47;;;18.23;;
842;SDS011;407;48.884;9.126;2022-12-15T06:46:14;36.63;;;17.30;;
842;SDS011;407;48.884;9.126;2022-12-15T06:48:40;34.63;;;16.60;;
842;SDS011;407;48.884;9.126;2022-12-15T06:51:09;41.33;;;18.85;;
842;SDS011;407;48.884;9.126;2022-12-15T06:53:36;43.00;;;17.60;;
842;SDS011;407;48.884;9.126;2022-12-15T06:56:03;46.87;;;19.23;;
842;SDS011;407;48.884;9.126;2022-12-15T06:58:31;40.40;;;18.10;;
842;SDS011;407;48.884;9.126;2022-12-15T07:00:58;40.85;;;17.55;;
842;SDS011;407;48.884;9.126;2022-12-15T07:03:30;42.70;;;18.83;;
842;SDS011;407;48.884;9.126;2022-12-15T07:06:03;41.90;;;19.38;;
842;SDS011;407;48.884;9.126;2022-12-15T07:08:30;40.47;;;18.75;;
842;SDS011;407;48.884;9.126;2022-12-15T07:10:56;39.25;;;17.20;;
842;SDS011;407;48.884;9.126;2022-12-15T07:13:22;43.40;;;16.40;;
842;SDS011;407;48.884;9.126;2022-12-15T07:15:48;41.07;;;16.80;;
842;SDS011;407;48.884;9.126;2022-12-15T07:18:14;38.97;;;18.27;;
842;SDS011;407;48.884;9.126;2022-12-15T07:20:40;45.22;;;18.58;;
842;SDS011;407;48.884;9.126;2022-12-15T07:23:06;40.03;;;16.95;;
842;SDS011;407;48.884;9.126;2022-12-15T07:25:36;38.55;;;16.67;;
842;SDS011;407;48.884;9.126;2022-12-15T07:28:03;38.47;;;16.40;;
842;SDS011;407;48.884;9.126;2022-12-15T07:30:30;36.78;;;17.23;;
842;SDS011;407;48.884;9.126;2022-12-15T07:32:56;44.33;;;16.25;;
842;SDS011;407;48.884;9.126;2022-12-15T07:35:23;47.30;;;19.00;;
842;SDS011;407;48.884;9.126;2022-12-15T07:37:48;46.03;;;18.43;;
842;SDS011;407;48.884;9.126;2022-12-15T07:40:14;39.43;;;16.70;;
842;SDS011;407;48.884;9.126;2022-12-15T07:42:40;41.95;;;17.80;;
842;SDS011;407;48.884;9.126;2022-12-15T07:45:06;52.17;;;19.83;;
842;SDS011;407;48.884;9.126;2022-12-15T07:47:33;40.72;;;18.77;;
842;SDS011;407;48.884;9.126;2022-12-15T07:50:00;44.67;;;17.40;;
842;SDS011;407;48.884;9.126;2022-12-15T07:52:25;37.83;;;17.57;;
842;SDS011;407;48.884;9.126;2022-12-15T07:54:51;37.13;;;16.60;;
842;SDS011;407;48.884;9.126;2022-12-15T07:57:17;38.27;;;16.70;;
842;SDS011;407;48.884;9.126;2022-12-15T07:59:43;39.30;;;16.57;;
842;SDS011;407;48.884;9.126;2022-12-15T08:02:09;38.70;;;15.50;;
842;SDS011;407;48.884;9.126;2022-12-15T08:04:36;40.22;;;16.83;;
842;SDS011;407;48.884;9.126;2022-12-15T08:07:02;33.80;;;15.23;;
842;SDS011;407;48.884;9.126;2022-12-15T08:09:28;39.43;;;16.17;;
842;SDS011;407;48.884;9.126;2022-12-15T08:11:55;42.38;;;17.73;;
842;SDS011;407;48.884;9.126;2022-12-15T08:14:21;37.83;;;16.20;;
842;SDS011;407;48.884;9.126;2022-12-15T08:16:47;36.23;;;16.63;;
842;SDS011;407;48.884;9.126;2022-12-15T08:19:13;42.22;;;17.50;;
842;SDS011;407;48.884;9.126;2022-12-15T08:21:39;39.27;;;16.53;;
842;SDS011;407;48.884;9.126;2022-12-15T08:24:06;37.92;;;16.25;;
842;SDS011;407;48.884;9.126;2022-12-15T08:26:33;36.72;;;16.55;;
842;SDS011;407;48.884;9.126;2022-12-15T08:29:02;40.45;;;18.00;;
842;SDS011;407;48.884;9.126;2022-12-15T08:31:28;38.50;;;16.55;;
842;SDS011;407;48.884;9.126;2022-12-15T08:33:56;33.20;;;15.98;;
842;SDS011;407;48.884;9.126;2022-12-15T08:36:22;35.25;;;17.38;;
842;SDS011;407;48.884;9.126;2022-12-15T08:38:48;38.90;;;16.13;;
842;SDS011;407;48.884;9.126;2022-12-15T08:41:18;39.00;;;17.33;;
842;SDS011;407;48.884;9.126;2022-12-15T08:43:47;38.30;;;16.85;;
842;SDS011;407;48.884;9.126;2022-12-15T08:46:14;38.70;;;17.70;;
842;SDS011;407;48.884;9.126;2022-12-15T08:48:40;37.65;;;16.88;;
842;SDS011;407;48.884;9.126;2022-12-15T08:51:06;38.70;;;16.73;;
842;SDS011;407;48.884;9.126;2022-12-15T08:53:32;37.05;;;15.77;;
842;SDS011;407;48.884;9.126;2022-12-15T08:56:02;35.05;;;15.63;;
842;SDS011;407;48.884;9.126;2022-12-15T08:58:28;43.17;;;16.88;;
842;SDS011;407;48.884;9.126;2022-12-15T09:00:58;36.08;;;16.10;;
842;SDS011;407;48.884;9.126;2022-12-15T09:03:28;42.35;;;16.65;;
842;SDS011;407;48.884;9.126;2022-12-15T09:05:54;36.15;;;16.48;;
842;SDS011;407;48.884;9.126;2022-12-15T09:08:21;34.90;;;15.57;;
842;SDS011;407;48.884;9.126;2022-12-15T09:10:48;35.83;;;15.52;;
842;SDS011;407;48.884;9.126;2022-12-15T09:13:14;39.42;;;16.17;;
842;SDS011;407;48.884;9.126;2022-12-15T09:15:39;38.90;;;15.80;;
842;SDS011;407;48.884;9.126;2022-12-15T09:18:07;34.13;;;16.95;;
842;SDS011;407;48.884;9.126;2022-12-15T09:20:33;39.65;;;16.45;;
842;SDS011;407;48.884;9.126;2022-12-15T09:22:58;34.37;;;15.50;;
842;SDS011;407;48.884;9.126;2022-12-15T09:25:24;36.27;;;16.83;;
842;SDS011;407;48.884;9.126;2022-12-15T09:27:50;40.97;;;17.13;;
842;SDS011;407;48.884;9.126;2022-12-15T09:30:15;37.10;;;17.17;;
842;SDS011;407;48.884;9.126;2022-12-15T09:32:41;34.55;;;16.48;;
842;SDS011;407;48.884;9.126;2022-12-15T09:35:06;37.80;;;16.77;;
842;SDS011;407;48.884;9.126;2022-12-15T09:37:32;35.97;;;17.15;;
842;SDS011;407;48.884;9.126;2022-12-15T09:39:58;36.10;;;17.38;;
842;SDS011;407;48.884;9.126;2022-12-15T09:42:25;34.83;;;17.80;;
842;SDS011;407;48.884;9.126;2022-12-15T09:44:57;33.80;;;15.73;;
842;SDS011;407;48.884;9.126;2022-12-15T09:50:04;40.35;;;15.48;;
842;SDS011;407;48.884;9.126;2022-12-15T09:52:34;39.97;;;17.17;;
842;SDS011;407;48.884;9.126;2022-12-15T09:55:41;41.33;;;16.13;;
842;SDS011;407;48.884;9.126;2022-12-15T09:57:59;38.75;;;16.08;;
842;SDS011;407;48.884;9.126;2022-12-15T10:00:39;37.17;;;14.98;;
842;SDS011;407;48.884;9.126;2022-12-15T10:03:20;38.42;;;15.95;;
842;SDS011;407;48.884;9.126;2022-12-15T10:06:00;42.20;;;16.90;;
842;SDS011;407;48.884;9.126;2022-12-15T10:08:32;38.08;;;16.30;;
842;SDS011;407;48.884;9.126;2022-12-15T10:11:04;34.88;;;14.70;;
842;SDS011;407;48.884;9.126;2022-12-15T10:14:10;36.17;;;16.38;;
842;SDS011;407;48.884;9.126;2022-12-15T10:16:51;35.63;;;16.70;;
842;SDS011;407;48.884;9.126;2022-12-15T10:21:50;38.57;;;16.57;;
842;SDS011;407;48.884;9.126;2022-12-15T10:24:17;37.83;;;16.17;;
842;SDS011;407;48.884;9.126;2022-12-15T10:26:47;40.05;;;16.98;;
842;SDS011;407;48.884;9.126;2022-12-15T10:29:32;40.75;;;16.98;;
842;SDS011;407;48.884;9.126;2022-12-15T10:32:15;41.20;;;16.75;;
842;SDS011;407;48.884;9.126;2022-12-15T10:34:54;36.33;;;15.60;;
842;SDS011;407;48.884;9.126;2022-12-15T10:37:19;33.73;;;15.97;;
842;SDS011;407;48.884;9.126;2022-12-15T10:39:46;35.08;;;17.17;;
842;SDS011;407;48.884;9.126;2022-12-15T10:44:50;36.05;;;14.95;;
842;SDS011;407;48.884;9.126;2022-12-15T10:47:24;33.20;;;14.35;;
842;SDS011;407;48.884;9.126;2022-12-15T10:50:17;29.13;;;14.02;;
842;SDS011;407;48.884;9.126;2022-12-15T10:52:47;43.10;;;17.37;;
842;SDS011;407;48.884;9.126;2022-12-15T10:58:18;40.10;;;17.33;;
842;SDS011;407;48.884;9.126;2022-12-15T11:00:45;36.10;;;16.20;;
842;SDS011;407;48.884;9.126;2022-12-15T11:03:19;35.05;;;16.75;;
842;SDS011;407;48.884;9.126;2022-12-15T11:05:53;37.10;;;15.63;;
842;SDS011;407;48.884;9.126;2022-12-15T11:08:20;39.03;;;16.17;;
842;SDS011;407;48.884;9.126;2022-12-15T11:10:55;39.65;;;16.25;;
842;SDS011;407;48.884;9.126;2022-12-15T11:13:40;33.33;;;15.15;;
842;SDS011;407;48.884;9.126;2022-12-15T11:16:13;35.50;;;15.27;;
842;SDS011;407;48.884;9.126;2022-12-15T11:21:24;32.15;;;13.95;;
842;SDS011;407;48.884;9.126;2022-12-15T11:29:14;35.22;;;15.80;;
842;SDS011;407;48.884;9.126;2022-12-15T11:31:43;37.15;;;16.58;;
842;SDS011;407;48.884;9.126;2022-12-15T11:34:17;31.80;;;13.70;;
842;SDS011;407;48.884;9.126;2022-12-15T11:36:52;36.83;;;15.02;;
842;SDS011;407;48.884;9.126;2022-12-15T11:58:44;31.58;;;16.02;;
842;SDS011;407;48.884;9.126;2022-12-15T12:01:22;34.60;;;15.65;;
842;SDS011;407;48.884;9.126;2022-12-15T12:04:24;31.77;;;14.40;;
842;SDS011;407;48.884;9.126;2022-12-15T12:09:52;31.95;;;14.10;;
842;SDS011;407;48.884;9.126;2022-12-15T12:12:28;36.47;;;16.50;;
842;SDS011;407;48.884;9.126;2022-12-15T12:17:46;30.80;;;14.35;;
842;SDS011;407;48.884;9.126;2022-12-15T12:20:17;36.33;;;16.77;;
842;SDS011;407;48.884;9.126;2022-12-15T12:23:03;36.63;;;15.60;;
842;SDS011;407;48.884;9.126;2022-12-15T12:25:40;33.47;;;13.88;;
842;SDS011;407;48.884;9.126;2022-12-15T12:28:16;34.17;;;14.98;;
842;SDS011;407;48.884;9.126;2022-12-15T12:30:48;33.67;;;14.83;;
842;SDS011;407;48.884;9.126;2022-12-15T12:33:35;34.60;;;15.20;;
842;SDS011;407;48.884;9.126;2022-12-15T12:36:07;32.85;;;14.98;;
842;SDS011;407;48.884;9.126;2022-12-15T12:38:37;32.60;;;14.30;;
842;SDS011;407;48.884;9.126;2022-12-15T12:43:42;32.10;;;14.00;;
842;SDS011;407;48.884;9.126;2022-12-15T12:46:13;27.20;;;12.98;;
842;SDS011;407;48.884;9.126;2022-12-15T12:53:50;31.13;;;14.32;;
842;SDS011;407;48.884;9.126;2022-12-15T12:58:54;34.45;;;15.00;;
842;SDS011;407;48.884;9.126;2022-12-15T13:01:29;27.93;;;14.53;;
842;SDS011;407;48.884;9.126;2022-12-15T13:04:12;35.35;;;13.18;;
842;SDS011;407;48.884;9.126;2022-12-15T13:06:59;29.50;;;13.02;;
842;SDS011;407;48.884;9.126;2022-12-15T13:10:00;32.30;;;14.15;;
842;SDS011;407;48.884;9.126;2022-12-15T13:15:03;31.80;;;13.88;;
842;SDS011;407;48.884;9.126;2022-12-15T13:17:40;28.02;;;12.85;;
842;SDS011;407;48.884;9.126;2022-12-15T13:20:22;26.10;;;12.02;;
842;SDS011;407;48.884;9.126;2022-12-15T13:25:44;30.10;;;13.20;;
842;SDS011;407;48.884;9.126;2022-12-15T13:44:14;29.98;;;12.27;;
842;SDS011;407;48.884;9.126;2022-12-15T13:46:49;30.00;;;13.45;;
842;SDS011;407;48.884;9.126;2022-12-15T13:49:21;30.20;;;12.88;;
842;SDS011;407;48.884;9.126;2022-12-15T13:52:11;35.05;;;13.82;;
842;SDS011;407;48.884;9.126;2022-12-15T13:54:59;35.23;;;15.60;;
842;SDS011;407;48.884;9.126;2022-12-15T13:57:28;30.58;;;13.63;;
842;SDS011;407;48.884;9.126;2022-12-15T14:00:00;32.70;;;14.03;;
842;SDS011;407;48.884;9.126;2022-12-15T14:02:42;33.30;;;13.73;;
842;SDS011;407;48.884;9.126;2022-12-15T14:05:16;32.78;;;14.23;;
842;SDS011;407;48.884;9.126;2022-12-15T14:10:21;35.22;;;14.30;;
842;SDS011;407;48.884;9.126;2022-12-15T14:12:48;35.77;;;14.50;;
842;SDS011;407;48.884;9.126;2022-12-15T14:15:17;33.47;;;14.30;;
842;SDS011;407;48.884;9.126;2022-12-15T14:17:49;29.45;;;13.20;;
842;SDS011;407;48.884;9.126;2022-12-15T14:20:20;27.90;;;13.57;;
842;SDS011;407;48.884;9.126;2022-12-15T14:22:47;30.50;;;13.02;;
842;SDS011;407;48.884;9.126;2022-12-15T14:25:21;32.67;;;13.77;;
842;SDS011;407;48.884;9.126;2022-12-15T14:27:48;31.73;;;13.50;;
842;SDS011;407;48.884;9.126;2022-12-15T14:30:24;32.58;;;13.05;;
842;SDS011;407;48.884;9.126;2022-12-15T14:33:07;31.60;;;13.32;;
842;SDS011;407;48.884;9.126;2022-12-15T14:35:39;32.00;;;13.93;;
842;SDS011;407;48.884;9.126;2022-12-15T14:38:17;31.77;;;13.18;;
842;SDS011;407;48.884;9.126;2022-12-15T14:40:47;33.13;;;14.50;;
842;SDS011;407;48.884;9.126;2022-12-15T14:43:19;29.87;;;12.47;;
842;SDS011;407;48.884;9.126;2022-12-15T14:46:07;31.73;;;13.80;;
842;SDS011;407;48.884;9.126;2022-12-15T14:48:37;30.08;;;13.63;;
842;SDS011;407;48.884;9.126;2022-12-15T14:51:07;32.47;;;14.25;;
842;SDS011;407;48.884;9.126;2022-12-15T14:53:36;30.83;;;13.45;;
842;SDS011;407;48.884;9.126;2022-12-15T14:56:11;36.13;;;13.85;;
842;SDS011;407;48.884;9.126;2022-12-15T14:58:46;34.10;;;12.63;;
842;SDS011;407;48.884;9.126;2022-12-15T15:01:26;30.52;;;12.52;;
842;SDS011;407;48.884;9.126;2022-12-15T15:04:01;33.05;;;13.60;;
842;SDS011;407;48.884;9.126;2022-12-15T15:06:29;29.73;;;11.82;;
842;SDS011;407;48.884;9.126;2022-12-15T15:09:02;24.73;;;11.55;;
842;SDS011;407;48.884;9.126;2022-12-15T15:11:35;26.50;;;12.23;;
842;SDS011;407;48.884;9.126;2022-12-15T15:14:06;30.98;;;12.88;;
842;SDS011;407;48.884;9.126;2022-12-15T15:16:41;31.33;;;12.77;;
842;SDS011;407;48.884;9.126;2022-12-15T15:19:10;29.58;;;14.48;;
842;SDS011;407;48.884;9.126;2022-12-15T15:21:44;30.30;;;11.70;;
842;SDS011;407;48.884;9.126;2022-12-15T15:26:36;29.73;;;12.90;;
842;SDS011;407;48.884;9.126;2022-12-15T15:29:02;25.67;;;11.55;;
842;SDS011;407;48.884;9.126;2022-12-15T15:31:51;26.90;;;11.85;;
842;SDS011;407;48.884;9.126;2022-12-15T15:34:17;22.57;;;10.63;;
842;SDS011;407;48.884;9.126;2022-12-15T15:36:42;24.63;;;11.60;;
842;SDS011;407;48.884;9.126;2022-12-15T15:39:12;30.45;;;11.98;;
842;SDS011;407;48.884;9.126;2022-12-15T15:41:39;26.55;;;11.60;;
842;SDS011;407;48.884;9.126;2022-12-15T15:44:09;25.77;;;12.75;;
842;SDS011;407;48.884;9.126;2022-12-15T15:46:37;32.50;;;14.17;;
842;SDS011;407;48.884;9.126;2022-12-15T15:49:13;30.92;;;13.18;;
842;SDS011;407;48.884;9.126;2022-12-15T15:51:41;31.38;;;13.10;;
842;SDS011;407;48.884;9.126;2022-12-15T15:54:09;28.02;;;12.63;;
842;SDS011;407;48.884;9.126;2022-12-15T15:56:41;34.65;;;13.80;;
842;SDS011;407;48.884;9.126;2022-12-15T15:59:10;33.30;;;14.47;;
842;SDS011;407;48.884;9.126;2022-12-15T16:01:37;32.55;;;14.82;;
842;SDS011;407;48.884;9.126;2022-12-15T16:04:03;34.50;;;14.93;;
842;SDS011;407;48.884;9.126;2022-12-15T16:06:30;32.50;;;14.15;;
842;SDS011;407;48.884;9.126;2022-12-15T16:08:56;30.10;;;14.30;;
842;SDS011;407;48.884;9.126;2022-12-15T16:11:22;31.73;;;14.70;;
842;SDS011;407;48.884;9.126;2022-12-15T16:13:50;32.72;;;14.57;;
842;SDS011;407;48.884;9.126;2022-12-15T16:16:20;32.78;;;15.10;;
842;SDS011;407;48.884;9.126;2022-12-15T16:18:55;36.45;;;14.20;;
842;SDS011;407;48.884;9.126;2022-12-15T16:21:21;32.33;;;14.45;;
842;SDS011;407;48.884;9.126;2022-12-15T16:23:49;33.17;;;14.75;;
842;SDS011;407;48.884;9.126;2022-12-15T16:26:20;35.17;;;15.82;;
842;SDS011;407;48.884;9.126;2022-12-15T16:28:53;36.95;;;16.20;;
842;SDS011;407;48.884;9.126;2022-12-15T16:31:30;39.08;;;17.88;;
842;SDS011;407;48.884;9.126;2022-12-15T16:33:57;33.43;;;15.07;;
842;SDS011;407;48.884;9.126;2022-12-15T16:36:22;37.50;;;16.40;;
842;SDS011;407;48.884;9.126;2022-12-15T16:38:48;35.22;;;15.63;;
842;SDS011;407;48.884;9.126;2022-12-15T16:41:15;39.63;;;17.27;;
842;SDS011;407;48.884;9.126;2022-12-15T16:43:41;36.72;;;17.75;;
842;SDS011;407;48.884;9.126;2022-12-15T16:46:11;41.10;;;17.80;;
842;SDS011;407;48.884;9.126;2022-12-15T16:48:37;33.60;;;14.90;;
842;SDS011;407;48.884;9.126;2022-12-15T16:51:05;34.57;;;16.23;;
842;SDS011;407;48.884;9.126;2022-12-15T16:53:33;37.30;;;17.20;;
842;SDS011;407;48.884;9.126;2022-12-15T16:56:02;43.67;;;16.77;;
842;SDS011;407;48.884;9.126;2022-12-15T16:58:30;40.03;;;19.13;;
842;SDS011;407;48.884;9.126;2022-12-15T17:00:58;36.90;;;16.52;;
842;SDS011;407;48.884;9.126;2022-12-15T17:03:23;34.45;;;17.38;;
842;SDS011;407;48.884;9.126;2022-12-15T17:06:02;37.63;;;17.35;;
842;SDS011;407;48.884;9.126;2022-12-15T17:08:41;38.13;;;16.55;;
842;SDS011;407;48.884;9.126;2022-12-15T17:11:20;46.03;;;19.75;;
842;SDS011;407;48.884;9.126;2022-12-15T17:13:48;37.95;;;16.92;;
842;SDS011;407;48.884;9.126;2022-12-15T17:16:18;35.03;;;15.80;;
842;SDS011;407;48.884;9.126;2022-12-15T17:18:47;33.28;;;18.13;;
842;SDS011;407;48.884;9.126;2022-12-15T17:21:17;38.03;;;16.25;;
842;SDS011;407;48.884;9.126;2022-12-15T17:23:47;33.65;;;16.58;;
842;SDS011;407;48.884;9.126;2022-12-15T17:26:23;37.80;;;15.23;;
842;SDS011;407;48.884;9.126;2022-12-15T17:28:51;30.42;;;14.93;;
842;SDS011;407;48.884;9.126;2022-12-15T17:31:21;32.93;;;15.10;;
842;SDS011;407;48.884;9.126;2022-12-15T17:33:50;35.75;;;16.00;;
842;SDS011;407;48.884;9.126;2022-12-15T17:36:21;38.20;;;17.63;;
842;SDS011;407;48.884;9.126;2022-12-15T17:38:53;38.10;;;16.65;;